aviador You're here:

KXMR Decoded Metar

CAPE CANAVERAL in FL, USA
Report Time2017-10-19 07:58:00
UTC Time2017-10-19 08:47:41
Flight Rules vfr VFR
Wind040° at 11 kt
W.Decomp.*RWY 13: 0.8 kt HW 11 kt LCW
W.Rank040° ranks 28
Current wind is above 040° avg. (6.4)
Visibility9999 m
Phenomena:N/A
Clouds:Few 023 Hf
Expected CloudBase > 1,200 ft AGL from Temp-Dew spread
CeilingNone
Temp25°C (ISA +10)
Dew Point22°C (83% RH)
QNH1017 hPa
Density Alt1,385 ft
Elevation10 ft
Report Wrong Elevation
Raw Report
KXMR 190758Z AUTO 04011KT 10SM FEW023 25/22 A3003 RMK AO2 SLP172
T02490223=

Extra information for KXMR:More info

Metar Taf Metar & Taf Last 4 Metars F.Rules Stats Wind Profile Meteogram Temp Stats Airport Information Weather charts Add Link Nearby VenuesMetar ALERT Operation Metar Decoded Social comments

AIRNAV info for KXMR